createdAt,value
2018-01-26T00:00:13.215Z,5.29
2018-01-26T00:02:39.326Z,5.27
2018-01-26T00:05:05.414Z,5.26
2018-01-26T00:07:31.514Z,5.21
2018-01-26T00:09:57.760Z,5.18
2018-01-26T00:12:23.947Z,5.13
2018-01-26T00:14:50.083Z,5.07
2018-01-26T00:17:16.240Z,5.03
2018-01-26T00:19:42.401Z,4.96
2018-01-26T00:22:08.544Z,4.91
2018-01-26T00:24:34.667Z,4.84
2018-01-26T00:27:00.856Z,4.80
2018-01-26T00:29:27.007Z,4.77
2018-01-26T00:31:53.152Z,4.75
2018-01-26T00:34:19.248Z,4.74
2018-01-26T00:36:45.356Z,4.73
2018-01-26T00:39:11.523Z,4.73
2018-01-26T00:41:37.727Z,4.75
2018-01-26T00:44:03.822Z,4.78
2018-01-26T00:46:29.986Z,4.78
2018-01-26T00:48:56.176Z,4.79
2018-01-26T00:51:22.481Z,4.79
2018-01-26T00:53:48.619Z,4.80
2018-01-26T00:56:14.738Z,4.83
2018-01-26T00:58:40.898Z,4.82
2018-01-26T01:01:07.024Z,4.81
2018-01-26T01:03:33.608Z,4.80
2018-01-26T01:05:59.752Z,4.77
2018-01-26T01:08:26.127Z,4.78
2018-01-26T01:10:52.293Z,4.78
2018-01-26T01:13:18.400Z,4.79
2018-01-26T01:15:44.622Z,4.78
2018-01-26T01:18:10.871Z,4.80
2018-01-26T01:20:37.000Z,4.81
2018-01-26T01:23:03.132Z,4.82
2018-01-26T01:25:30.662Z,4.80
2018-01-26T01:27:56.834Z,4.77
2018-01-26T01:30:22.960Z,4.73
2018-01-26T01:32:49.716Z,4.71
2018-01-26T01:35:15.815Z,4.70
2018-01-26T01:37:41.924Z,4.67
2018-01-26T01:40:08.190Z,4.65
2018-01-26T01:42:34.323Z,4.61
2018-01-26T01:45:00.522Z,4.60
2018-01-26T01:47:26.642Z,4.57
2018-01-26T01:49:52.932Z,4.52
2018-01-26T01:52:19.046Z,4.50
2018-01-26T01:54:45.390Z,4.46
2018-01-26T01:57:11.486Z,4.42
2018-01-26T01:59:37.696Z,4.39
2018-01-26T02:02:03.860Z,4.34
2018-01-26T02:04:30.981Z,4.31
2018-01-26T02:06:57.097Z,4.29
2018-01-26T02:09:24.164Z,4.29
2018-01-26T02:11:50.484Z,4.29
2018-01-26T02:14:16.623Z,4.29
2018-01-26T02:16:42.748Z,4.29
2018-01-26T02:19:09.083Z,4.29
2018-01-26T02:21:35.210Z,4.31
2018-01-26T02:24:01.321Z,4.32
2018-01-26T02:26:27.457Z,4.34
2018-01-26T02:29:00.571Z,4.37
2018-01-26T02:31:26.801Z,4.37
2018-01-26T02:33:52.927Z,4.41
2018-01-26T02:36:19.058Z,4.41
2018-01-26T02:38:45.237Z,4.37
2018-01-26T02:41:11.429Z,4.33
2018-01-26T02:43:37.547Z,4.30
2018-01-26T02:46:03.668Z,4.29
2018-01-26T02:48:29.833Z,4.28
2018-01-26T02:50:56.014Z,4.31
2018-01-26T02:53:22.285Z,4.32
2018-01-26T02:55:48.493Z,4.34
2018-01-26T02:58:14.682Z,4.34
2018-01-26T03:00:40.838Z,4.33
2018-01-26T03:03:06.955Z,4.31
2018-01-26T03:05:33.097Z,4.28
2018-01-26T03:07:59.192Z,4.26
2018-01-26T03:10:25.388Z,4.22
2018-01-26T03:12:51.473Z,4.21
2018-01-26T03:15:17.798Z,4.20
2018-01-26T03:17:43.961Z,4.18
2018-01-26T03:20:10.137Z,4.18
2018-01-26T03:22:36.250Z,4.16
2018-01-26T03:25:02.390Z,4.14
2018-01-26T03:27:35.537Z,4.11
2018-01-26T03:30:01.832Z,4.09
2018-01-26T03:32:27.971Z,4.05
2018-01-26T03:34:54.124Z,4.03
2018-01-26T03:37:20.433Z,4.00
2018-01-26T03:39:46.599Z,3.96
2018-01-26T03:42:13.357Z,3.95
2018-01-26T03:44:39.485Z,3.93
2018-01-26T03:47:05.640Z,3.95
2018-01-26T03:49:31.785Z,3.95
2018-01-26T03:51:57.936Z,3.96
2018-01-26T03:54:24.123Z,3.94
2018-01-26T03:56:50.278Z,3.94
2018-01-26T03:59:17.559Z,3.99
2018-01-26T04:01:43.732Z,4.04
2018-01-26T04:04:09.829Z,4.05
2018-01-26T04:06:36.060Z,4.06
2018-01-26T04:09:02.502Z,4.07
2018-01-26T04:11:30.508Z,4.08
2018-01-26T04:13:56.730Z,4.08
2018-01-26T04:16:24.298Z,4.06
2018-01-26T04:18:50.509Z,4.04
2018-01-26T04:21:16.802Z,4.03
2018-01-26T04:23:43.000Z,4.03
2018-01-26T04:26:09.351Z,4.04
2018-01-26T04:28:35.725Z,4.05
2018-01-26T04:31:02.005Z,4.06
2018-01-26T04:33:28.147Z,4.04
2018-01-26T04:35:54.359Z,4.02
2018-01-26T04:38:20.612Z,4.02
2018-01-26T04:40:46.932Z,4.02
2018-01-26T04:43:13.155Z,4.02
2018-01-26T04:45:39.348Z,3.99
2018-01-26T04:48:05.608Z,3.98
2018-01-26T04:50:31.839Z,3.94
2018-01-26T04:52:57.965Z,3.91
2018-01-26T04:55:24.394Z,3.89
2018-01-26T04:57:50.691Z,3.89
2018-01-26T05:00:16.992Z,3.88
2018-01-26T05:02:43.137Z,3.86
2018-01-26T05:05:09.322Z,3.86
2018-01-26T05:07:35.593Z,3.84
2018-01-26T05:10:01.797Z,3.81
2018-01-26T05:12:27.993Z,3.79
2018-01-26T05:14:54.248Z,3.80
2018-01-26T05:17:21.518Z,3.82
2018-01-26T05:19:47.733Z,3.82
2018-01-26T05:22:13.880Z,3.83
2018-01-26T05:24:40.106Z,3.83
2018-01-26T05:27:06.348Z,3.84
2018-01-26T05:29:32.607Z,3.84
2018-01-26T05:31:58.851Z,3.85
2018-01-26T05:34:25.014Z,3.84
2018-01-26T05:36:51.226Z,3.83
2018-01-26T05:39:17.453Z,3.82
2018-01-26T05:41:43.730Z,3.84
2018-01-26T05:44:09.961Z,3.84
2018-01-26T05:46:36.126Z,3.84
2018-01-26T05:49:02.337Z,3.82
2018-01-26T05:51:28.543Z,3.80
2018-01-26T05:53:54.706Z,3.78
2018-01-26T05:56:21.047Z,3.76
2018-01-26T05:58:49.880Z,3.74
2018-01-26T06:01:16.127Z,3.75
2018-01-26T06:03:42.325Z,3.74
2018-01-26T06:06:08.533Z,3.75
2018-01-26T06:08:34.755Z,3.76
2018-01-26T06:11:01.025Z,3.78
2018-01-26T06:13:27.161Z,3.76
2018-01-26T06:15:53.398Z,3.80
2018-01-26T06:18:19.567Z,3.88
2018-01-26T06:20:46.026Z,3.95
2018-01-26T06:23:12.752Z,4.04
2018-01-26T06:25:39.136Z,4.12
2018-01-26T06:28:05.330Z,4.19
2018-01-26T06:30:31.581Z,4.25
2018-01-26T06:32:57.874Z,4.30
2018-01-26T06:35:24.051Z,4.34
2018-01-26T06:37:50.272Z,4.38
2018-01-26T06:40:16.466Z,4.40
2018-01-26T06:42:42.614Z,4.43
2018-01-26T06:45:08.812Z,4.42
2018-01-26T06:47:34.998Z,4.42
2018-01-26T06:50:01.216Z,4.39
2018-01-26T06:52:27.363Z,4.36
2018-01-26T06:54:53.574Z,4.33
2018-01-26T06:57:19.917Z,4.29
2018-01-26T06:59:46.213Z,4.25
2018-01-26T07:02:12.365Z,4.22
2018-01-26T07:04:38.520Z,4.20
2018-01-26T07:07:04.852Z,4.18
2018-01-26T07:09:31.055Z,4.14
2018-01-26T07:11:57.259Z,4.10
2018-01-26T07:14:23.628Z,4.09
2018-01-26T07:16:49.927Z,4.11
2018-01-26T07:19:16.089Z,4.15
2018-01-26T07:21:42.355Z,4.19
2018-01-26T07:24:08.499Z,4.23
2018-01-26T07:26:34.700Z,4.26
2018-01-26T07:29:00.866Z,4.29
2018-01-26T07:31:27.105Z,4.31
2018-01-26T07:33:53.259Z,4.35
2018-01-26T07:36:20.888Z,4.36
2018-01-26T07:38:47.068Z,4.38
2018-01-26T07:41:13.400Z,4.39
2018-01-26T07:43:39.545Z,4.42
2018-01-26T07:46:05.708Z,4.44
2018-01-26T07:48:31.878Z,4.47
2018-01-26T07:50:58.185Z,4.48
2018-01-26T07:53:24.432Z,4.49
2018-01-26T07:55:50.687Z,4.49
2018-01-26T07:58:18.463Z,4.47
2018-01-26T08:00:44.708Z,4.45
2018-01-26T08:03:11.881Z,4.44
2018-01-26T08:05:38.045Z,4.43
2018-01-26T08:08:04.308Z,4.42
2018-01-26T08:10:30.545Z,4.41
2018-01-26T08:12:56.862Z,4.41
2018-01-26T08:15:23.010Z,4.41
2018-01-26T08:17:49.152Z,4.41
2018-01-26T08:20:15.353Z,4.41
2018-01-26T08:22:41.631Z,4.44
2018-01-26T08:25:07.872Z,4.48
2018-01-26T08:27:34.050Z,4.52
2018-01-26T08:30:00.335Z,4.56
2018-01-26T08:32:26.471Z,4.60
2018-01-26T08:34:52.617Z,4.64
2018-01-26T08:37:18.861Z,4.65
2018-01-26T08:39:45.062Z,4.67
2018-01-26T08:42:11.212Z,4.69
2018-01-26T08:44:37.397Z,4.74
2018-01-26T08:47:03.573Z,4.77
2018-01-26T08:49:29.765Z,4.86
2018-01-26T08:51:56.013Z,4.93
2018-01-26T08:54:25.007Z,5.01
2018-01-26T08:56:51.836Z,5.11
2018-01-26T08:59:19.091Z,5.21
2018-01-26T09:01:45.375Z,5.29
2018-01-26T09:04:12.088Z,5.35
2018-01-26T09:06:38.289Z,5.40
2018-01-26T09:09:04.515Z,5.45
2018-01-26T09:11:30.771Z,5.46
2018-01-26T09:13:56.933Z,5.47
2018-01-26T09:16:23.165Z,5.51
2018-01-26T09:18:49.409Z,5.54
2018-01-26T09:21:15.579Z,5.59
2018-01-26T09:23:41.707Z,5.62
2018-01-26T09:26:07.977Z,5.70
2018-01-26T09:28:34.164Z,5.71
2018-01-26T09:31:00.326Z,5.75
2018-01-26T09:33:26.575Z,5.77
2018-01-26T09:35:52.801Z,5.75
2018-01-26T09:38:18.942Z,5.78
2018-01-26T09:40:45.116Z,5.80
2018-01-26T09:43:11.299Z,5.84
2018-01-26T09:45:37.572Z,5.85
2018-01-26T09:48:03.753Z,5.87
2018-01-26T09:50:30.053Z,5.87
2018-01-26T09:52:56.248Z,5.90
2018-01-26T09:55:22.525Z,5.93
2018-01-26T09:57:48.936Z,5.98
2018-01-26T10:00:15.205Z,6.06
2018-01-26T10:02:41.504Z,6.16
2018-01-26T10:05:07.740Z,6.20
2018-01-26T10:07:33.956Z,6.26
2018-01-26T10:10:00.210Z,6.31
2018-01-26T10:12:26.422Z,6.34
2018-01-26T10:14:52.602Z,6.39
2018-01-26T10:17:18.890Z,6.42
2018-01-26T10:19:47.958Z,6.45
2018-01-26T10:22:14.197Z,6.55
2018-01-26T10:24:40.515Z,6.61
2018-01-26T10:27:06.802Z,6.68
2018-01-26T10:29:33.018Z,6.78
2018-01-26T10:31:59.279Z,6.83
2018-01-26T10:34:25.478Z,6.91
2018-01-26T10:36:51.745Z,6.91
2018-01-26T10:39:17.914Z,6.88
2018-01-26T10:41:44.117Z,6.88
2018-01-26T10:44:10.342Z,6.89
2018-01-26T10:46:36.770Z,6.85
2018-01-26T10:49:03.008Z,6.86
2018-01-26T10:51:29.236Z,6.86
2018-01-26T10:53:55.448Z,6.88
2018-01-26T10:56:21.769Z,6.86
2018-01-26T10:58:48.327Z,6.83
2018-01-26T11:01:14.477Z,6.87
2018-01-26T11:03:41.382Z,6.89
2018-01-26T11:06:07.666Z,6.92
2018-01-26T11:08:34.283Z,6.92
2018-01-26T11:11:00.810Z,6.95
2018-01-26T11:13:27.063Z,6.98
2018-01-26T11:15:53.374Z,6.99
2018-01-26T11:18:19.646Z,7.06
2018-01-26T11:20:45.884Z,7.17
2018-01-26T11:23:12.120Z,7.25
2018-01-26T11:25:38.487Z,7.29
2018-01-26T11:28:04.871Z,7.31
2018-01-26T11:30:31.870Z,7.32
2018-01-26T11:32:58.041Z,7.30
2018-01-26T11:35:24.255Z,7.33
2018-01-26T11:37:50.785Z,7.39
2018-01-26T11:40:16.978Z,7.48
2018-01-26T11:42:43.193Z,7.49
2018-01-26T11:45:09.491Z,7.55
2018-01-26T11:47:35.882Z,7.62
2018-01-26T11:50:02.227Z,7.63
2018-01-26T11:52:28.472Z,7.66
2018-01-26T11:54:54.817Z,7.66
2018-01-26T11:57:21.760Z,7.65
2018-01-26T11:59:47.982Z,7.68
2018-01-26T12:02:14.209Z,7.72
2018-01-26T12:04:41.423Z,7.73
2018-01-26T12:07:08.917Z,7.75
2018-01-26T12:09:35.498Z,7.82
2018-01-26T12:12:02.577Z,7.86
2018-01-26T12:14:29.150Z,7.84
2018-01-26T12:16:55.591Z,7.86
2018-01-26T12:19:21.959Z,7.97
2018-01-26T12:21:48.314Z,8.18
2018-01-26T12:24:14.682Z,8.35
2018-01-26T12:26:41.216Z,8.40
2018-01-26T12:29:08.218Z,8.41
2018-01-26T12:31:34.590Z,8.45
2018-01-26T12:34:01.051Z,8.54
2018-01-26T12:36:27.397Z,8.62
2018-01-26T12:38:55.377Z,8.63
2018-01-26T12:41:22.251Z,8.61
2018-01-26T12:43:49.407Z,8.65
2018-01-26T12:46:17.307Z,8.66
2018-01-26T12:48:44.409Z,8.74
2018-01-26T12:51:12.175Z,8.84
2018-01-26T12:53:38.845Z,8.90
2018-01-26T12:56:05.239Z,8.96
2018-01-26T12:58:38.349Z,8.96
2018-01-26T13:01:04.724Z,8.93
2018-01-26T13:03:31.176Z,8.83
2018-01-26T13:05:57.479Z,8.62
2018-01-26T13:08:23.733Z,8.47
2018-01-26T13:10:49.850Z,8.38
2018-01-26T13:13:16.017Z,8.32
2018-01-26T13:15:42.169Z,8.43
2018-01-26T13:18:08.297Z,8.55
2018-01-26T13:20:34.432Z,8.67
2018-01-26T13:23:00.607Z,8.78
2018-01-26T13:25:27.494Z,8.94
2018-01-26T13:27:55.700Z,9.13
2018-01-26T13:30:21.967Z,9.34
2018-01-26T13:32:50.629Z,9.45
2018-01-26T13:35:17.080Z,9.51
2018-01-26T13:37:43.270Z,9.44
2018-01-26T13:40:09.442Z,9.43
2018-01-26T13:42:35.637Z,9.38
2018-01-26T13:45:01.854Z,9.31
2018-01-26T13:47:30.332Z,9.16
2018-01-26T13:49:56.588Z,9.03
2018-01-26T13:52:22.728Z,8.92
2018-01-26T13:54:48.968Z,8.85
2018-01-26T13:57:15.333Z,8.79
2018-01-26T13:59:41.523Z,8.85
2018-01-26T14:02:07.677Z,8.91
2018-01-26T14:04:33.906Z,9.04
2018-01-26T14:07:00.114Z,9.16
2018-01-26T14:09:29.026Z,9.22
2018-01-26T14:11:55.229Z,9.16
2018-01-26T14:14:21.382Z,9.22
2018-01-26T14:16:47.576Z,9.23
2018-01-26T14:19:13.758Z,9.20
2018-01-26T14:21:39.956Z,9.08
2018-01-26T14:24:06.116Z,9.03
2018-01-26T14:26:32.674Z,9.05
2018-01-26T14:28:58.990Z,8.99
2018-01-26T14:31:25.398Z,8.99
2018-01-26T14:33:51.541Z,9.01
2018-01-26T14:36:17.767Z,9.01
2018-01-26T14:38:44.067Z,9.00
2018-01-26T14:41:10.309Z,9.00
2018-01-26T14:43:37.103Z,8.98
2018-01-26T14:46:03.277Z,8.92
2018-01-26T14:48:29.488Z,8.90
2018-01-26T14:50:55.680Z,8.87
2018-01-26T14:53:21.883Z,8.85
2018-01-26T14:55:48.174Z,8.74
2018-01-26T14:58:14.494Z,8.67
2018-01-26T15:00:40.652Z,8.67
2018-01-26T15:03:06.848Z,8.62
2018-01-26T15:05:33.158Z,8.64
2018-01-26T15:07:59.431Z,8.66
2018-01-26T15:10:25.611Z,8.68
2018-01-26T15:12:51.943Z,8.66
2018-01-26T15:15:18.220Z,8.64
2018-01-26T15:17:44.334Z,8.63
2018-01-26T15:20:10.515Z,8.61
2018-01-26T15:22:36.751Z,8.57
2018-01-26T15:25:03.014Z,8.55
2018-01-26T15:27:29.248Z,8.51
2018-01-26T15:29:55.425Z,8.49
2018-01-26T15:32:21.696Z,8.45
2018-01-26T15:34:47.991Z,8.45
2018-01-26T15:37:14.235Z,8.43
2018-01-26T15:39:40.494Z,8.41
2018-01-26T15:42:06.651Z,8.43
2018-01-26T15:44:32.905Z,8.39
2018-01-26T15:46:59.607Z,8.35
2018-01-26T15:49:25.724Z,8.27
2018-01-26T15:51:51.885Z,8.19
2018-01-26T15:54:18.027Z,8.11
2018-01-26T15:56:51.365Z,8.10
2018-01-26T15:59:17.592Z,8.08
2018-01-26T16:01:43.730Z,8.04
2018-01-26T16:04:09.903Z,8.01
2018-01-26T16:06:36.135Z,7.99
2018-01-26T16:09:02.347Z,7.93
2018-01-26T16:11:28.533Z,7.91
2018-01-26T16:13:54.656Z,7.91
2018-01-26T16:16:20.858Z,7.88
2018-01-26T16:18:47.480Z,7.83
2018-01-26T16:21:13.761Z,7.85
2018-01-26T16:23:40.195Z,7.85
2018-01-26T16:26:06.486Z,7.85
2018-01-26T16:28:32.656Z,7.84
2018-01-26T16:30:58.968Z,7.83
2018-01-26T16:33:26.495Z,7.80
2018-01-26T16:35:52.753Z,7.79
2018-01-26T16:38:18.910Z,7.74
2018-01-26T16:40:45.166Z,7.71
2018-01-26T16:43:11.334Z,7.69
2018-01-26T16:45:37.587Z,7.66
2018-01-26T16:48:03.787Z,7.61
2018-01-26T16:50:29.945Z,7.57
2018-01-26T16:52:56.155Z,7.54
2018-01-26T16:55:22.497Z,7.51
2018-01-26T16:57:48.703Z,7.48
2018-01-26T17:00:15.007Z,7.45
2018-01-26T17:02:41.203Z,7.47
2018-01-26T17:05:07.390Z,7.44
2018-01-26T17:07:33.773Z,7.45
2018-01-26T17:09:59.955Z,7.45
2018-01-26T17:12:26.153Z,7.43
2018-01-26T17:14:52.351Z,7.44
2018-01-26T17:17:18.637Z,7.44
2018-01-26T17:19:44.844Z,7.44
2018-01-26T17:22:11.014Z,7.42
2018-01-26T17:24:37.180Z,7.43
2018-01-26T17:27:03.613Z,7.42
2018-01-26T17:29:29.756Z,7.40
2018-01-26T17:31:56.545Z,7.38
2018-01-26T17:34:22.694Z,7.36
2018-01-26T17:36:48.885Z,7.31
2018-01-26T17:39:16.247Z,7.30
2018-01-26T17:41:42.892Z,7.31
2018-01-26T17:44:09.200Z,7.31
2018-01-26T17:46:35.440Z,7.32
2018-01-26T17:49:01.682Z,7.31
2018-01-26T17:51:27.935Z,7.32
2018-01-26T17:53:54.189Z,7.32
2018-01-26T17:56:20.508Z,7.32
2018-01-26T17:58:46.732Z,7.32
2018-01-26T18:01:12.967Z,7.30
2018-01-26T18:03:39.302Z,7.34
2018-01-26T18:06:05.605Z,7.36
2018-01-26T18:08:31.892Z,7.35
2018-01-26T18:10:58.175Z,7.34
2018-01-26T18:13:24.400Z,7.36
2018-01-26T18:15:50.681Z,7.34
2018-01-26T18:18:16.909Z,7.33
2018-01-26T18:20:43.129Z,7.32
2018-01-26T18:23:09.392Z,7.27
2018-01-26T18:25:35.656Z,7.22
2018-01-26T18:28:02.081Z,7.19
2018-01-26T18:30:28.254Z,7.16
2018-01-26T18:32:54.442Z,7.12
2018-01-26T18:35:20.933Z,7.10
2018-01-26T18:37:47.139Z,7.07
2018-01-26T18:40:13.401Z,7.03
2018-01-26T18:42:39.572Z,6.99
2018-01-26T18:45:05.721Z,6.97
2018-01-26T18:47:32.026Z,6.94
2018-01-26T18:49:58.245Z,6.90
2018-01-26T18:52:24.529Z,6.88
2018-01-26T18:54:50.975Z,6.84
2018-01-26T18:57:17.237Z,6.84
2018-01-26T18:59:43.439Z,6.82
2018-01-26T19:02:09.579Z,6.80
2018-01-26T19:04:35.770Z,6.79
2018-01-26T19:07:02.133Z,6.78
2018-01-26T19:09:29.346Z,6.79
2018-01-26T19:11:58.836Z,6.80
2018-01-26T19:14:25.329Z,6.85
2018-01-26T19:16:53.844Z,6.85
2018-01-26T19:19:20.177Z,6.85
2018-01-26T19:21:46.416Z,6.89
2018-01-26T19:24:12.749Z,6.92
2018-01-26T19:26:39.149Z,6.92
2018-01-26T19:29:06.181Z,6.93
2018-01-26T19:31:32.422Z,6.92
2018-01-26T19:33:58.784Z,6.92
2018-01-26T19:36:25.042Z,6.91
2018-01-26T19:38:51.825Z,6.92
2018-01-26T19:41:18.057Z,6.92
2018-01-26T19:43:44.209Z,6.91
2018-01-26T19:46:10.432Z,6.88
2018-01-26T19:48:36.655Z,6.85
2018-01-26T19:51:02.805Z,6.85
2018-01-26T19:53:28.986Z,6.84
2018-01-26T19:55:55.290Z,6.84
2018-01-26T19:58:21.474Z,6.85
2018-01-26T20:00:47.620Z,6.85
2018-01-26T20:03:25.965Z,6.85
2018-01-26T20:05:58.220Z,6.83
2018-01-26T20:08:30.590Z,6.83
2018-01-26T20:10:56.727Z,6.84
2018-01-26T20:13:27.784Z,6.85
2018-01-26T20:15:54.024Z,6.84
2018-01-26T20:18:20.231Z,6.85
2018-01-26T20:20:46.368Z,6.85
2018-01-26T20:23:12.535Z,6.85
2018-01-26T20:25:38.724Z,6.86
2018-01-26T20:28:05.082Z,6.84
2018-01-26T20:30:31.236Z,6.85
2018-01-26T20:32:57.408Z,6.86
2018-01-26T20:35:23.517Z,6.86
2018-01-26T20:37:49.742Z,6.85
2018-01-26T20:40:15.855Z,6.85
2018-01-26T20:42:42.029Z,6.84
2018-01-26T20:45:08.194Z,6.85
2018-01-26T20:47:34.565Z,6.82
2018-01-26T20:50:00.718Z,6.82
2018-01-26T20:52:26.873Z,6.82
2018-01-26T20:54:53.246Z,6.81
2018-01-26T20:57:19.434Z,6.81
2018-01-26T20:59:45.604Z,6.81
2018-01-26T21:02:11.758Z,6.80
2018-01-26T21:04:39.132Z,6.82
2018-01-26T21:07:05.337Z,6.82
2018-01-26T21:09:31.490Z,6.82
2018-01-26T21:11:57.588Z,6.83
2018-01-26T21:14:23.847Z,6.81
2018-01-26T21:16:50.037Z,6.79
2018-01-26T21:19:16.195Z,6.77
2018-01-26T21:21:42.391Z,6.75
2018-01-26T21:24:08.567Z,6.74
2018-01-26T21:26:34.759Z,6.73
2018-01-26T21:29:00.902Z,6.75
2018-01-26T21:31:27.033Z,6.74
2018-01-26T21:33:53.206Z,6.73
2018-01-26T21:36:19.354Z,6.74
2018-01-26T21:38:46.081Z,6.73
2018-01-26T21:41:12.204Z,6.74
2018-01-26T21:43:38.351Z,6.72
2018-01-26T21:46:04.480Z,6.70
2018-01-26T21:48:30.634Z,6.62
2018-01-26T21:50:56.748Z,6.51
2018-01-26T21:53:22.893Z,6.45
2018-01-26T21:55:49.153Z,6.42
2018-01-26T21:58:15.419Z,6.36
2018-01-26T22:00:41.537Z,6.28
2018-01-26T22:03:07.644Z,6.20
2018-01-26T22:05:33.780Z,6.14
2018-01-26T22:07:59.968Z,6.09
2018-01-26T22:10:26.115Z,6.05
2018-01-26T22:12:52.234Z,6.02
2018-01-26T22:15:18.367Z,6.02
2018-01-26T22:17:44.574Z,6.02
2018-01-26T22:20:10.766Z,6.04
2018-01-26T22:22:36.995Z,6.06
2018-01-26T22:25:03.177Z,6.07
2018-01-26T22:27:29.367Z,6.07
2018-01-26T22:29:55.495Z,6.08
2018-01-26T22:32:23.914Z,6.10
2018-01-26T22:34:50.054Z,6.08
2018-01-26T22:37:16.242Z,6.02
2018-01-26T22:39:42.411Z,5.95
2018-01-26T22:42:08.569Z,5.91
2018-01-26T22:44:34.763Z,5.83
2018-01-26T22:47:00.921Z,5.76
2018-01-26T22:49:27.109Z,5.70
2018-01-26T22:51:53.320Z,5.63
2018-01-26T22:54:19.639Z,5.59
2018-01-26T22:56:45.802Z,5.57
2018-01-26T22:59:12.158Z,5.58
2018-01-26T23:01:38.329Z,5.59
2018-01-26T23:04:04.442Z,5.61
2018-01-26T23:06:30.584Z,5.64
2018-01-26T23:08:56.780Z,5.67
2018-01-26T23:11:22.903Z,5.69
2018-01-26T23:13:49.051Z,5.74
2018-01-26T23:16:15.877Z,5.79
2018-01-26T23:18:42.110Z,5.81
2018-01-26T23:21:08.248Z,5.85
2018-01-26T23:23:34.354Z,5.87
2018-01-26T23:26:00.535Z,5.90
2018-01-26T23:28:26.786Z,5.92
2018-01-26T23:30:52.903Z,5.94
2018-01-26T23:33:18.995Z,5.96
2018-01-26T23:35:45.229Z,5.98
2018-01-26T23:38:14.520Z,6.01
2018-01-26T23:40:40.637Z,6.00
2018-01-26T23:43:06.833Z,6.02
2018-01-26T23:45:33.067Z,6.03
2018-01-26T23:47:59.231Z,6.05
2018-01-26T23:50:25.346Z,6.01
2018-01-26T23:52:51.528Z,6.04
2018-01-26T23:55:17.818Z,6.06
2018-01-26T23:57:43.977Z,6.06
